sensor_id;sensor_type;location;lat;lon;timestamp;P1;durP1;ratioP1;P2;durP2;ratioP2
66127;SDS011;52925;52.436;-1.952;2024-03-08T06:31:39;41.13;;;27.47;;
66127;SDS011;52925;52.436;-1.952;2024-03-08T06:33:01;40.17;;;27.37;;
66127;SDS011;52925;52.436;-1.952;2024-03-08T06:34:21;41.03;;;27.20;;
66127;SDS011;52925;52.436;-1.952;2024-03-08T06:35:41;40.88;;;26.88;;
66127;SDS011;52925;52.436;-1.952;2024-03-08T06:37:10;38.75;;;26.75;;
66127;SDS011;52925;52.436;-1.952;2024-03-08T06:38:31;39.35;;;27.77;;
66127;SDS011;52925;52.436;-1.952;2024-03-08T06:39:51;40.50;;;26.98;;
66127;SDS011;52925;52.436;-1.952;2024-03-08T06:41:14;39.60;;;26.98;;
66127;SDS011;52925;52.436;-1.952;2024-03-08T06:42:34;39.20;;;26.40;;
66127;SDS011;52925;52.436;-1.952;2024-03-08T06:43:55;41.78;;;26.95;;
66127;SDS011;52925;52.436;-1.952;2024-03-08T06:45:16;41.00;;;27.08;;
66127;SDS011;52925;52.436;-1.952;2024-03-08T06:46:41;42.83;;;26.92;;
66127;SDS011;52925;52.436;-1.952;2024-03-08T06:48:01;38.58;;;25.45;;
66127;SDS011;52925;52.436;-1.952;2024-03-08T06:49:40;40.65;;;25.92;;
66127;SDS011;52925;52.436;-1.952;2024-03-08T06:50:59;40.80;;;27.60;;
66127;SDS011;52925;52.436;-1.952;2024-03-08T06:52:21;40.03;;;26.52;;
66127;SDS011;52925;52.436;-1.952;2024-03-08T06:53:40;39.63;;;25.88;;
66127;SDS011;52925;52.436;-1.952;2024-03-08T06:55:02;38.85;;;26.55;;
66127;SDS011;52925;52.436;-1.952;2024-03-08T06:56:24;38.70;;;25.93;;
66127;SDS011;52925;52.436;-1.952;2024-03-08T06:57:45;39.00;;;26.93;;
66127;SDS011;52925;52.436;-1.952;2024-03-08T06:59:05;41.07;;;27.27;;
66127;SDS011;52925;52.436;-1.952;2024-03-08T07:00:29;40.67;;;26.13;;
66127;SDS011;52925;52.436;-1.952;2024-03-08T07:01:51;42.67;;;27.50;;
66127;SDS011;52925;52.436;-1.952;2024-03-08T07:03:13;40.47;;;27.50;;
66127;SDS011;52925;52.436;-1.952;2024-03-08T07:05:02;41.90;;;27.57;;
66127;SDS011;52925;52.436;-1.952;2024-03-08T07:06:24;40.63;;;26.53;;
66127;SDS011;52925;52.436;-1.952;2024-03-08T07:07:44;40.80;;;26.53;;
66127;SDS011;52925;52.436;-1.952;2024-03-08T07:09:07;42.58;;;26.92;;
66127;SDS011;52925;52.436;-1.952;2024-03-08T07:10:27;40.53;;;27.88;;
66127;SDS011;52925;52.436;-1.952;2024-03-08T07:11:48;44.00;;;26.85;;
66127;SDS011;52925;52.436;-1.952;2024-03-08T07:13:13;41.47;;;27.05;;
66127;SDS011;52925;52.436;-1.952;2024-03-08T07:14:34;42.47;;;28.33;;
66127;SDS011;52925;52.436;-1.952;2024-03-08T07:15:59;40.90;;;27.38;;
66127;SDS011;52925;52.436;-1.952;2024-03-08T16:56:06;22.20;;;16.33;;
66127;SDS011;52925;52.436;-1.952;2024-03-08T16:57:38;24.73;;;17.25;;
66127;SDS011;52925;52.436;-1.952;2024-03-08T16:59:04;26.90;;;17.80;;
66127;SDS011;52925;52.436;-1.952;2024-03-08T17:00:27;25.00;;;18.20;;
66127;SDS011;52925;52.436;-1.952;2024-03-08T17:01:47;24.37;;;17.97;;
66127;SDS011;52925;52.436;-1.952;2024-03-08T17:03:09;23.47;;;17.37;;
66127;SDS011;52925;52.436;-1.952;2024-03-08T17:04:40;22.40;;;17.30;;
66127;SDS011;52925;52.436;-1.952;2024-03-08T17:06:02;24.67;;;17.60;;
66127;SDS011;52925;52.436;-1.952;2024-03-08T17:07:25;25.43;;;17.63;;
66127;SDS011;52925;52.436;-1.952;2024-03-08T17:08:47;24.20;;;18.00;;
66127;SDS011;52925;52.436;-1.952;2024-03-08T17:10:08;23.63;;;17.83;;
66127;SDS011;52925;52.436;-1.952;2024-03-08T17:11:35;24.47;;;17.40;;
66127;SDS011;52925;52.436;-1.952;2024-03-08T17:12:57;25.52;;;17.92;;
66127;SDS011;52925;52.436;-1.952;2024-03-08T17:14:19;25.17;;;17.57;;
66127;SDS011;52925;52.436;-1.952;2024-03-08T17:15:41;23.30;;;17.60;;
66127;SDS011;52925;52.436;-1.952;2024-03-08T17:17:04;24.33;;;17.60;;
66127;SDS011;52925;52.436;-1.952;2024-03-08T17:18:33;22.38;;;17.20;;
66127;SDS011;52925;52.436;-1.952;2024-03-08T17:19:54;23.43;;;17.17;;
66127;SDS011;52925;52.436;-1.952;2024-03-08T17:21:29;24.70;;;17.80;;
66127;SDS011;52925;52.436;-1.952;2024-03-08T17:22:50;21.53;;;17.03;;
66127;SDS011;52925;52.436;-1.952;2024-03-08T17:24:12;24.37;;;18.33;;
66127;SDS011;52925;52.436;-1.952;2024-03-08T17:25:35;22.85;;;17.88;;
66127;SDS011;52925;52.436;-1.952;2024-03-08T17:27:01;22.00;;;16.83;;
66127;SDS011;52925;52.436;-1.952;2024-03-08T17:28:25;24.37;;;17.53;;
66127;SDS011;52925;52.436;-1.952;2024-03-08T17:29:48;23.00;;;18.20;;
66127;SDS011;52925;52.436;-1.952;2024-03-08T17:31:09;28.83;;;18.40;;
66127;SDS011;52925;52.436;-1.952;2024-03-08T17:38:57;26.13;;;19.47;;
66127;SDS011;52925;52.436;-1.952;2024-03-08T17:40:19;29.73;;;19.63;;
66127;SDS011;52925;52.436;-1.952;2024-03-08T17:41:41;28.93;;;18.93;;
66127;SDS011;52925;52.436;-1.952;2024-03-08T17:43:05;30.00;;;18.70;;
66127;SDS011;52925;52.436;-1.952;2024-03-08T17:44:26;29.63;;;18.53;;
66127;SDS011;52925;52.436;-1.952;2024-03-08T17:45:49;33.13;;;20.07;;
66127;SDS011;52925;52.436;-1.952;2024-03-08T17:47:13;32.07;;;19.57;;
66127;SDS011;52925;52.436;-1.952;2024-03-08T17:48:38;29.13;;;19.40;;
66127;SDS011;52925;52.436;-1.952;2024-03-08T17:49:58;32.35;;;21.85;;
66127;SDS011;52925;52.436;-1.952;2024-03-08T17:51:19;28.93;;;19.27;;
66127;SDS011;52925;52.436;-1.952;2024-03-08T17:52:39;30.02;;;18.83;;
66127;SDS011;52925;52.436;-1.952;2024-03-08T17:54:01;31.70;;;19.98;;
66127;SDS011;52925;52.436;-1.952;2024-03-08T17:55:22;28.77;;;20.17;;
66127;SDS011;52925;52.436;-1.952;2024-03-08T17:56:44;32.58;;;20.73;;
66127;SDS011;52925;52.436;-1.952;2024-03-08T17:58:06;27.27;;;20.30;;
66127;SDS011;52925;52.436;-1.952;2024-03-08T17:59:27;30.67;;;20.35;;
66127;SDS011;52925;52.436;-1.952;2024-03-08T18:00:48;32.37;;;21.50;;
66127;SDS011;52925;52.436;-1.952;2024-03-08T18:02:10;28.23;;;20.35;;
66127;SDS011;52925;52.436;-1.952;2024-03-08T18:03:32;27.60;;;20.03;;
66127;SDS011;52925;52.436;-1.952;2024-03-08T18:04:52;32.17;;;20.87;;
66127;SDS011;52925;52.436;-1.952;2024-03-08T18:06:12;30.03;;;20.47;;
66127;SDS011;52925;52.436;-1.952;2024-03-08T18:07:33;29.47;;;19.27;;
66127;SDS011;52925;52.436;-1.952;2024-03-08T18:08:54;32.83;;;21.73;;
66127;SDS011;52925;52.436;-1.952;2024-03-08T18:10:15;32.40;;;22.53;;
66127;SDS011;52925;52.436;-1.952;2024-03-08T18:11:37;31.60;;;20.60;;
66127;SDS011;52925;52.436;-1.952;2024-03-08T18:13:28;31.37;;;20.73;;
66127;SDS011;52925;52.436;-1.952;2024-03-08T18:14:53;33.30;;;21.47;;
66127;SDS011;52925;52.436;-1.952;2024-03-08T18:16:13;30.50;;;21.40;;
66127;SDS011;52925;52.436;-1.952;2024-03-08T18:17:34;34.20;;;21.90;;
66127;SDS011;52925;52.436;-1.952;2024-03-08T18:18:55;33.40;;;22.50;;
66127;SDS011;52925;52.436;-1.952;2024-03-08T18:20:15;33.47;;;21.55;;
66127;SDS011;52925;52.436;-1.952;2024-03-08T18:21:40;35.67;;;22.57;;
66127;SDS011;52925;52.436;-1.952;2024-03-08T18:23:00;33.03;;;21.27;;
66127;SDS011;52925;52.436;-1.952;2024-03-08T18:24:23;30.70;;;21.53;;
66127;SDS011;52925;52.436;-1.952;2024-03-08T18:25:53;34.13;;;21.37;;
66127;SDS011;52925;52.436;-1.952;2024-03-08T18:27:14;29.57;;;21.27;;
66127;SDS011;52925;52.436;-1.952;2024-03-08T18:28:35;28.80;;;21.57;;
66127;SDS011;52925;52.436;-1.952;2024-03-08T18:30:00;35.13;;;22.50;;
66127;SDS011;52925;52.436;-1.952;2024-03-08T18:31:20;32.57;;;22.63;;
66127;SDS011;52925;52.436;-1.952;2024-03-08T18:32:54;30.17;;;22.23;;
66127;SDS011;52925;52.436;-1.952;2024-03-08T18:34:14;32.67;;;22.63;;
66127;SDS011;52925;52.436;-1.952;2024-03-08T18:35:36;31.50;;;21.57;;
66127;SDS011;52925;52.436;-1.952;2024-03-08T18:36:56;31.50;;;22.73;;
66127;SDS011;52925;52.436;-1.952;2024-03-08T18:38:17;31.80;;;21.43;;
66127;SDS011;52925;52.436;-1.952;2024-03-08T18:39:38;32.90;;;22.17;;
66127;SDS011;52925;52.436;-1.952;2024-03-08T18:40:59;32.80;;;21.57;;
66127;SDS011;52925;52.436;-1.952;2024-03-08T18:42:19;31.90;;;22.20;;
66127;SDS011;52925;52.436;-1.952;2024-03-08T18:43:42;32.27;;;21.73;;
66127;SDS011;52925;52.436;-1.952;2024-03-08T18:45:01;31.43;;;21.93;;
66127;SDS011;52925;52.436;-1.952;2024-03-08T18:46:28;33.45;;;22.45;;
66127;SDS011;52925;52.436;-1.952;2024-03-08T18:47:50;33.78;;;22.75;;
66127;SDS011;52925;52.436;-1.952;2024-03-08T18:49:11;34.33;;;22.97;;
66127;SDS011;52925;52.436;-1.952;2024-03-08T18:50:31;31.80;;;21.50;;
66127;SDS011;52925;52.436;-1.952;2024-03-08T18:51:52;34.07;;;22.97;;
66127;SDS011;52925;52.436;-1.952;2024-03-08T18:53:13;33.97;;;22.43;;
66127;SDS011;52925;52.436;-1.952;2024-03-08T18:54:34;32.60;;;22.70;;
66127;SDS011;52925;52.436;-1.952;2024-03-08T18:55:55;31.37;;;21.70;;
66127;SDS011;52925;52.436;-1.952;2024-03-08T18:57:16;32.23;;;22.47;;
66127;SDS011;52925;52.436;-1.952;2024-03-08T18:58:36;33.47;;;22.48;;
66127;SDS011;52925;52.436;-1.952;2024-03-08T18:59:58;32.07;;;22.40;;
66127;SDS011;52925;52.436;-1.952;2024-03-08T19:01:18;31.80;;;22.37;;
66127;SDS011;52925;52.436;-1.952;2024-03-08T19:02:44;34.78;;;22.73;;
66127;SDS011;52925;52.436;-1.952;2024-03-08T19:04:04;32.90;;;22.87;;
66127;SDS011;52925;52.436;-1.952;2024-03-08T19:05:26;33.60;;;23.15;;
66127;SDS011;52925;52.436;-1.952;2024-03-08T19:06:46;38.13;;;23.03;;
66127;SDS011;52925;52.436;-1.952;2024-03-08T19:08:10;33.92;;;23.92;;
66127;SDS011;52925;52.436;-1.952;2024-03-08T19:09:31;31.40;;;22.50;;
66127;SDS011;52925;52.436;-1.952;2024-03-08T19:10:53;35.55;;;22.45;;
66127;SDS011;52925;52.436;-1.952;2024-03-08T19:12:16;34.20;;;22.00;;
66127;SDS011;52925;52.436;-1.952;2024-03-08T19:13:37;34.33;;;23.07;;
66127;SDS011;52925;52.436;-1.952;2024-03-08T19:14:58;32.03;;;22.00;;
66127;SDS011;52925;52.436;-1.952;2024-03-08T19:16:27;35.73;;;23.40;;
66127;SDS011;52925;52.436;-1.952;2024-03-08T19:17:49;34.38;;;23.70;;
66127;SDS011;52925;52.436;-1.952;2024-03-08T19:19:09;37.90;;;22.57;;
66127;SDS011;52925;52.436;-1.952;2024-03-08T19:20:30;31.40;;;21.67;;
66127;SDS011;52925;52.436;-1.952;2024-03-08T19:21:52;31.63;;;22.17;;
66127;SDS011;52925;52.436;-1.952;2024-03-08T19:23:14;34.17;;;22.83;;
66127;SDS011;52925;52.436;-1.952;2024-03-08T19:24:34;32.70;;;22.77;;
66127;SDS011;52925;52.436;-1.952;2024-03-08T19:25:55;32.58;;;22.38;;
66127;SDS011;52925;52.436;-1.952;2024-03-08T19:27:14;33.50;;;22.65;;
66127;SDS011;52925;52.436;-1.952;2024-03-08T19:28:35;32.08;;;23.00;;
66127;SDS011;52925;52.436;-1.952;2024-03-08T19:29:59;35.45;;;23.48;;
66127;SDS011;52925;52.436;-1.952;2024-03-08T19:31:19;32.30;;;21.98;;
66127;SDS011;52925;52.436;-1.952;2024-03-08T19:32:40;33.07;;;22.57;;
66127;SDS011;52925;52.436;-1.952;2024-03-08T19:34:01;33.95;;;23.55;;
66127;SDS011;52925;52.436;-1.952;2024-03-08T19:35:22;35.67;;;22.53;;
66127;SDS011;52925;52.436;-1.952;2024-03-08T19:36:42;34.78;;;22.75;;
66127;SDS011;52925;52.436;-1.952;2024-03-08T19:38:04;32.87;;;22.70;;
66127;SDS011;52925;52.436;-1.952;2024-03-08T19:39:26;35.90;;;23.37;;
66127;SDS011;52925;52.436;-1.952;2024-03-08T19:40:47;34.47;;;22.57;;
66127;SDS011;52925;52.436;-1.952;2024-03-08T19:42:08;34.23;;;23.07;;
66127;SDS011;52925;52.436;-1.952;2024-03-08T19:43:29;36.40;;;22.73;;
66127;SDS011;52925;52.436;-1.952;2024-03-08T19:44:49;34.13;;;23.77;;
66127;SDS011;52925;52.436;-1.952;2024-03-08T19:46:12;33.10;;;22.80;;
66127;SDS011;52925;52.436;-1.952;2024-03-08T19:47:33;37.37;;;24.00;;
66127;SDS011;52925;52.436;-1.952;2024-03-08T19:48:53;36.00;;;23.60;;
66127;SDS011;52925;52.436;-1.952;2024-03-08T19:50:15;32.87;;;22.97;;
66127;SDS011;52925;52.436;-1.952;2024-03-08T19:51:35;35.70;;;23.85;;
66127;SDS011;52925;52.436;-1.952;2024-03-08T19:52:56;34.00;;;23.15;;
66127;SDS011;52925;52.436;-1.952;2024-03-08T19:54:23;33.80;;;23.13;;
66127;SDS011;52925;52.436;-1.952;2024-03-08T19:55:44;35.67;;;23.20;;
66127;SDS011;52925;52.436;-1.952;2024-03-08T19:57:07;32.25;;;23.27;;
66127;SDS011;52925;52.436;-1.952;2024-03-08T19:58:29;35.92;;;23.63;;
66127;SDS011;52925;52.436;-1.952;2024-03-08T19:59:48;34.00;;;22.38;;
66127;SDS011;52925;52.436;-1.952;2024-03-08T20:01:12;31.97;;;22.73;;
66127;SDS011;52925;52.436;-1.952;2024-03-08T20:02:33;35.33;;;23.40;;
66127;SDS011;52925;52.436;-1.952;2024-03-08T20:03:54;32.57;;;23.37;;
66127;SDS011;52925;52.436;-1.952;2024-03-08T20:05:15;30.57;;;21.73;;
66127;SDS011;52925;52.436;-1.952;2024-03-08T20:06:40;31.07;;;22.43;;
66127;SDS011;52925;52.436;-1.952;2024-03-08T20:08:04;33.13;;;23.10;;
66127;SDS011;52925;52.436;-1.952;2024-03-08T20:09:26;31.93;;;22.53;;
66127;SDS011;52925;52.436;-1.952;2024-03-08T20:10:48;32.20;;;22.43;;
66127;SDS011;52925;52.436;-1.952;2024-03-08T20:12:10;31.13;;;21.30;;
66127;SDS011;52925;52.436;-1.952;2024-03-08T20:13:31;30.07;;;22.57;;
66127;SDS011;52925;52.436;-1.952;2024-03-08T20:14:52;33.92;;;23.90;;
66127;SDS011;52925;52.436;-1.952;2024-03-08T20:16:14;32.27;;;21.93;;
66127;SDS011;52925;52.436;-1.952;2024-03-08T20:17:37;31.80;;;22.77;;
66127;SDS011;52925;52.436;-1.952;2024-03-08T20:18:58;33.77;;;23.30;;
66127;SDS011;52925;52.436;-1.952;2024-03-08T20:20:21;30.67;;;22.90;;
66127;SDS011;52925;52.436;-1.952;2024-03-08T20:21:42;32.00;;;22.27;;
66127;SDS011;52925;52.436;-1.952;2024-03-08T20:23:03;31.40;;;22.60;;
66127;SDS011;52925;52.436;-1.952;2024-03-08T20:24:24;31.33;;;22.10;;
66127;SDS011;52925;52.436;-1.952;2024-03-08T20:25:45;30.97;;;22.93;;
66127;SDS011;52925;52.436;-1.952;2024-03-08T20:27:07;33.08;;;23.40;;
66127;SDS011;52925;52.436;-1.952;2024-03-08T20:28:28;33.95;;;23.20;;
66127;SDS011;52925;52.436;-1.952;2024-03-08T20:29:51;32.30;;;23.25;;
66127;SDS011;52925;52.436;-1.952;2024-03-08T20:31:14;32.53;;;23.15;;
66127;SDS011;52925;52.436;-1.952;2024-03-08T20:32:35;31.23;;;21.90;;
66127;SDS011;52925;52.436;-1.952;2024-03-08T20:33:55;33.22;;;23.55;;
66127;SDS011;52925;52.436;-1.952;2024-03-08T20:35:16;35.08;;;24.45;;
66127;SDS011;52925;52.436;-1.952;2024-03-08T20:36:39;32.53;;;23.77;;
66127;SDS011;52925;52.436;-1.952;2024-03-08T20:38:01;31.58;;;22.58;;
66127;SDS011;52925;52.436;-1.952;2024-03-08T20:39:25;29.90;;;22.87;;
66127;SDS011;52925;52.436;-1.952;2024-03-08T20:40:48;31.70;;;23.10;;
66127;SDS011;52925;52.436;-1.952;2024-03-08T20:42:08;32.40;;;23.37;;
66127;SDS011;52925;52.436;-1.952;2024-03-08T20:43:29;31.30;;;22.93;;
66127;SDS011;52925;52.436;-1.952;2024-03-08T20:44:49;35.00;;;23.70;;
66127;SDS011;52925;52.436;-1.952;2024-03-08T20:46:10;33.80;;;24.60;;
66127;SDS011;52925;52.436;-1.952;2024-03-08T20:47:35;33.58;;;23.33;;
66127;SDS011;52925;52.436;-1.952;2024-03-08T20:49:01;37.67;;;25.00;;
66127;SDS011;52925;52.436;-1.952;2024-03-08T20:50:21;35.25;;;23.83;;
66127;SDS011;52925;52.436;-1.952;2024-03-08T20:51:42;33.53;;;24.70;;
66127;SDS011;52925;52.436;-1.952;2024-03-08T20:53:03;32.70;;;23.40;;
66127;SDS011;52925;52.436;-1.952;2024-03-08T20:54:26;32.37;;;23.93;;
66127;SDS011;52925;52.436;-1.952;2024-03-08T20:55:45;33.90;;;24.67;;
66127;SDS011;52925;52.436;-1.952;2024-03-08T20:57:09;34.57;;;24.60;;
66127;SDS011;52925;52.436;-1.952;2024-03-08T20:58:28;36.13;;;23.87;;
66127;SDS011;52925;52.436;-1.952;2024-03-08T20:59:50;34.55;;;24.55;;
66127;SDS011;52925;52.436;-1.952;2024-03-08T21:01:09;35.45;;;24.65;;
66127;SDS011;52925;52.436;-1.952;2024-03-08T21:02:30;35.47;;;24.80;;
66127;SDS011;52925;52.436;-1.952;2024-03-08T21:03:51;35.30;;;25.23;;
66127;SDS011;52925;52.436;-1.952;2024-03-08T21:05:12;34.37;;;24.67;;
66127;SDS011;52925;52.436;-1.952;2024-03-08T21:06:32;35.75;;;25.17;;
66127;SDS011;52925;52.436;-1.952;2024-03-08T21:07:53;33.57;;;24.97;;
66127;SDS011;52925;52.436;-1.952;2024-03-08T21:09:14;34.85;;;24.98;;
66127;SDS011;52925;52.436;-1.952;2024-03-08T21:10:34;34.27;;;25.63;;
66127;SDS011;52925;52.436;-1.952;2024-03-08T21:11:55;33.83;;;25.03;;
66127;SDS011;52925;52.436;-1.952;2024-03-08T21:13:18;34.13;;;24.93;;
66127;SDS011;52925;52.436;-1.952;2024-03-08T21:14:40;36.70;;;26.50;;
66127;SDS011;52925;52.436;-1.952;2024-03-08T21:16:00;35.57;;;26.13;;
66127;SDS011;52925;52.436;-1.952;2024-03-08T21:17:20;37.33;;;27.27;;
66127;SDS011;52925;52.436;-1.952;2024-03-08T21:18:40;33.93;;;25.37;;
66127;SDS011;52925;52.436;-1.952;2024-03-08T21:20:03;36.80;;;24.57;;
66127;SDS011;52925;52.436;-1.952;2024-03-08T21:21:27;37.83;;;26.13;;
66127;SDS011;52925;52.436;-1.952;2024-03-08T21:22:48;40.97;;;27.63;;
66127;SDS011;52925;52.436;-1.952;2024-03-08T21:24:08;37.93;;;26.53;;
66127;SDS011;52925;52.436;-1.952;2024-03-08T21:25:29;33.80;;;24.90;;
66127;SDS011;52925;52.436;-1.952;2024-03-08T21:26:50;38.33;;;25.77;;
66127;SDS011;52925;52.436;-1.952;2024-03-08T21:28:12;35.43;;;25.80;;
66127;SDS011;52925;52.436;-1.952;2024-03-08T21:29:36;37.50;;;26.87;;
66127;SDS011;52925;52.436;-1.952;2024-03-08T21:30:59;35.50;;;26.47;;
66127;SDS011;52925;52.436;-1.952;2024-03-08T21:32:20;36.13;;;26.53;;
66127;SDS011;52925;52.436;-1.952;2024-03-08T21:33:41;36.00;;;26.47;;
66127;SDS011;52925;52.436;-1.952;2024-03-08T21:35:03;37.33;;;26.55;;
66127;SDS011;52925;52.436;-1.952;2024-03-08T21:36:26;40.13;;;27.85;;
66127;SDS011;52925;52.436;-1.952;2024-03-08T21:37:46;37.13;;;26.55;;
66127;SDS011;52925;52.436;-1.952;2024-03-08T21:39:07;38.40;;;26.77;;
66127;SDS011;52925;52.436;-1.952;2024-03-08T21:40:30;37.97;;;27.37;;
66127;SDS011;52925;52.436;-1.952;2024-03-08T21:41:54;36.03;;;26.67;;
66127;SDS011;52925;52.436;-1.952;2024-03-08T21:43:14;37.33;;;27.60;;
66127;SDS011;52925;52.436;-1.952;2024-03-08T21:44:35;36.63;;;27.20;;
66127;SDS011;52925;52.436;-1.952;2024-03-08T21:45:55;38.78;;;28.02;;
66127;SDS011;52925;52.436;-1.952;2024-03-08T21:47:16;39.20;;;28.70;;
66127;SDS011;52925;52.436;-1.952;2024-03-08T21:48:38;40.30;;;29.20;;
66127;SDS011;52925;52.436;-1.952;2024-03-08T21:49:58;41.83;;;28.90;;
66127;SDS011;52925;52.436;-1.952;2024-03-08T21:51:20;39.27;;;29.20;;
66127;SDS011;52925;52.436;-1.952;2024-03-08T21:52:41;39.97;;;27.83;;
66127;SDS011;52925;52.436;-1.952;2024-03-08T21:54:02;43.43;;;29.07;;
66127;SDS011;52925;52.436;-1.952;2024-03-08T21:55:23;38.73;;;28.47;;
66127;SDS011;52925;52.436;-1.952;2024-03-08T21:56:44;42.90;;;29.73;;
66127;SDS011;52925;52.436;-1.952;2024-03-08T21:58:04;40.73;;;29.17;;
66127;SDS011;52925;52.436;-1.952;2024-03-08T21:59:26;40.80;;;29.27;;
66127;SDS011;52925;52.436;-1.952;2024-03-08T22:00:48;42.90;;;28.63;;
66127;SDS011;52925;52.436;-1.952;2024-03-08T22:02:08;39.23;;;29.57;;
66127;SDS011;52925;52.436;-1.952;2024-03-08T22:03:29;38.83;;;28.00;;
66127;SDS011;52925;52.436;-1.952;2024-03-08T22:04:51;37.92;;;28.17;;
66127;SDS011;52925;52.436;-1.952;2024-03-08T22:06:12;38.47;;;28.30;;
66127;SDS011;52925;52.436;-1.952;2024-03-08T22:07:33;43.63;;;30.53;;
66127;SDS011;52925;52.436;-1.952;2024-03-08T22:08:54;40.22;;;29.75;;
66127;SDS011;52925;52.436;-1.952;2024-03-08T22:10:14;41.37;;;30.20;;
66127;SDS011;52925;52.436;-1.952;2024-03-08T22:11:39;41.83;;;29.43;;
66127;SDS011;52925;52.436;-1.952;2024-03-08T22:12:59;43.70;;;29.10;;
66127;SDS011;52925;52.436;-1.952;2024-03-08T22:14:20;42.47;;;30.27;;
66127;SDS011;52925;52.436;-1.952;2024-03-08T22:15:42;37.15;;;28.67;;
66127;SDS011;52925;52.436;-1.952;2024-03-08T22:17:07;41.33;;;29.48;;
66127;SDS011;52925;52.436;-1.952;2024-03-08T22:18:30;43.60;;;29.58;;
66127;SDS011;52925;52.436;-1.952;2024-03-08T22:19:51;41.72;;;30.98;;
66127;SDS011;52925;52.436;-1.952;2024-03-08T22:21:12;41.13;;;29.83;;
66127;SDS011;52925;52.436;-1.952;2024-03-08T22:22:34;41.53;;;28.75;;
66127;SDS011;52925;52.436;-1.952;2024-03-08T22:23:55;40.92;;;29.65;;
66127;SDS011;52925;52.436;-1.952;2024-03-08T22:25:15;39.27;;;28.53;;
66127;SDS011;52925;52.436;-1.952;2024-03-08T22:26:37;40.50;;;28.87;;
66127;SDS011;52925;52.436;-1.952;2024-03-08T22:27:56;39.43;;;28.93;;
66127;SDS011;52925;52.436;-1.952;2024-03-08T22:29:17;40.38;;;28.95;;
66127;SDS011;52925;52.436;-1.952;2024-03-08T22:30:39;43.27;;;29.33;;
66127;SDS011;52925;52.436;-1.952;2024-03-08T22:31:59;40.78;;;29.60;;
66127;SDS011;52925;52.436;-1.952;2024-03-08T22:33:19;45.55;;;30.15;;
66127;SDS011;52925;52.436;-1.952;2024-03-08T22:34:41;40.87;;;29.43;;
66127;SDS011;52925;52.436;-1.952;2024-03-08T22:36:01;39.95;;;28.95;;
66127;SDS011;52925;52.436;-1.952;2024-03-08T22:37:26;42.97;;;28.97;;
66127;SDS011;52925;52.436;-1.952;2024-03-08T22:38:47;44.20;;;29.77;;
66127;SDS011;52925;52.436;-1.952;2024-03-08T22:40:08;42.03;;;29.73;;
66127;SDS011;52925;52.436;-1.952;2024-03-08T22:41:29;43.72;;;30.45;;
66127;SDS011;52925;52.436;-1.952;2024-03-08T22:42:55;42.63;;;29.50;;
66127;SDS011;52925;52.436;-1.952;2024-03-08T22:44:15;43.35;;;31.73;;
66127;SDS011;52925;52.436;-1.952;2024-03-08T22:45:36;46.88;;;30.02;;
66127;SDS011;52925;52.436;-1.952;2024-03-08T22:46:57;41.33;;;28.83;;
66127;SDS011;52925;52.436;-1.952;2024-03-08T22:48:18;44.70;;;29.77;;
66127;SDS011;52925;52.436;-1.952;2024-03-08T22:49:38;43.95;;;29.17;;
66127;SDS011;52925;52.436;-1.952;2024-03-08T22:50:59;41.90;;;28.60;;
66127;SDS011;52925;52.436;-1.952;2024-03-08T22:52:21;42.15;;;29.67;;
66127;SDS011;52925;52.436;-1.952;2024-03-08T22:53:42;41.73;;;29.60;;
66127;SDS011;52925;52.436;-1.952;2024-03-08T22:55:04;43.57;;;29.87;;
66127;SDS011;52925;52.436;-1.952;2024-03-08T22:56:27;43.17;;;29.63;;
66127;SDS011;52925;52.436;-1.952;2024-03-08T22:57:47;42.97;;;30.20;;
66127;SDS011;52925;52.436;-1.952;2024-03-08T22:59:08;43.00;;;31.27;;
66127;SDS011;52925;52.436;-1.952;2024-03-08T23:00:28;44.67;;;29.77;;
66127;SDS011;52925;52.436;-1.952;2024-03-08T23:02:13;41.60;;;29.27;;
66127;SDS011;52925;52.436;-1.952;2024-03-08T23:03:36;42.58;;;29.67;;
66127;SDS011;52925;52.436;-1.952;2024-03-08T23:04:57;45.20;;;29.73;;
66127;SDS011;52925;52.436;-1.952;2024-03-08T23:06:18;39.70;;;27.92;;
66127;SDS011;52925;52.436;-1.952;2024-03-08T23:07:39;43.57;;;30.30;;
66127;SDS011;52925;52.436;-1.952;2024-03-08T23:09:00;45.83;;;29.40;;
66127;SDS011;52925;52.436;-1.952;2024-03-08T23:10:21;45.88;;;31.15;;
66127;SDS011;52925;52.436;-1.952;2024-03-08T23:11:43;42.55;;;30.13;;
66127;SDS011;52925;52.436;-1.952;2024-03-08T23:13:04;45.47;;;30.10;;
66127;SDS011;52925;52.436;-1.952;2024-03-08T23:14:28;46.47;;;31.27;;
